• Join FlightAware (Why Join?)
  • Login
  • US Flag 
09:49PM EDT


 

Airport Tracker/Info


-or-


 

Live Flight TrackerFlight Track Log ✈ N896P ✈ 17-Jul-2013 ✈ KFTW - KSHR

Flight Track Log - Related Links

Times and Time Zones

All times are in EDT time to prevent confusion due to time zone crossing. See the N896P flight status page for this flight to view local times or setup timezone preferences in your user account.

Time Position Orientation Groundspeed Altitude Reporting Facility
EDT Latitude Longitude Course Direction KTS MPH feet Rate Location/Type
05:56PM 32.8167 -97.3500 186° South 134 154 1,200  Level Dallas / Fort Worth TRACON
05:57PM 32.7603 -97.3567 186° South 200 230 3,300 3,180 Climbing Fort Worth Center
05:58PM 32.7144 -97.3639 188° South 229 264 7,000 3,240 Climbing Fort Worth Center
05:59PM 32.7247 -97.4481 278° West 264 304 9,800 3,120 Climbing Fort Worth Center
06:00PM 32.7436 -97.5269 286° West 280 322 13,300 3,060 Climbing Fort Worth Center
06:01PM 32.7664 -97.6111 288° West 281 323 16,000 2,400 Climbing Fort Worth Center
06:02PM 32.7850 -97.6925 285° West 281 323 18,100 2,100 Climbing Fort Worth Center
06:03PM 32.8161 -97.7917 290° West 288 331 20,200 1,620 Climbing Fort Worth Center
06:04PM 32.8472 -97.8708 295° West 293 337 21,400 1,320 Climbing Fort Worth Center
06:05PM 32.8947 -97.9650 301° West 298 343 22,900 1,260 Climbing Fort Worth Center
06:06PM 32.9403 -98.0544 301° West 306 352 24,000 1,320 Climbing Fort Worth Center
06:07PM 32.9836 -98.1442 300° West 311 358 25,600 960 Climbing Fort Worth Center
06:08PM 33.0331 -98.2386 302° West 322 371 26,000 600 Climbing Fort Worth Center
06:09PM 33.0844 -98.3433 300° West 345 397 26,900 1,260 Climbing Fort Worth Center
06:10PM 33.1339 -98.4478 300° West 357 411 28,600 1,500 Climbing Fort Worth Center
06:11PM 33.1769 -98.5303 302° West 351 404 30,000 1,560 Climbing Fort Worth Center
06:12PM 33.2219 -98.6228 300° West 338 389 31,800 1,620 Climbing Fort Worth Center
06:13PM 33.2692 -98.7153 301° West 338 389 33,300 1,380 Climbing Fort Worth Center
06:14PM 33.3119 -98.8106 298° West 333 383 34,600 1,140 Climbing Fort Worth Center
06:15PM 33.3608 -98.9058 302° West 333 383 35,600 1,020 Climbing Fort Worth Center
06:16PM 33.4078 -99.0011 301° West 333 383 36,700 900 Climbing Fort Worth Center
06:17PM 33.4544 -99.0989 300° West 333 383 37,500 600 Climbing Fort Worth Center
06:18PM 33.4992 -99.1944 299° West 333 383 37,900 420 Climbing Fort Worth Center
06:19PM 33.5478 -99.2953 300° West 333 383 38,400 420 Climbing Fort Worth Center
06:20PM 33.5983 -99.3961 301° West 339 390 38,800 480 Climbing Fort Worth Center
06:21PM 33.6469 -99.4919 301° West 339 390 39,400 540 Climbing Fort Worth Center
06:22PM 33.6994 -99.5856 304° West 339 390 39,900 300 Climbing Fort Worth Center
06:23PM 33.7753 -99.6600 321° Northwest 345 397 40,000  Climbing Fort Worth Center
06:24PM 33.8725 -99.7175 334° Northwest 371 427 40,000  Level Fort Worth Center
06:25PM 33.9736 -99.7703 337° Northwest 381 438 40,000 240 Level Fort Worth Center
06:26PM 34.0769 -99.8281 335° Northwest 394 453 40,500 600 Climbing Fort Worth Center
06:27PM 34.1758 -99.8861 334° Northwest 399 459 41,300 600 Climbing Fort Worth Center
06:28PM 34.2750 -99.9442 334° Northwest 394 453 41,800 480 Climbing Fort Worth Center
06:30PM 34.5114 -100.0781 335° Northwest 398 458 43,000 300 Climbing Albuquerque Center
06:31PM 34.6217 -100.1408 335° Northwest 403 464 43,000  Level Albuquerque Center
06:32PM 34.7200 -100.1961 335° Northwest 412 474 43,000  Level Albuquerque Center
06:33PM 34.8239 -100.2572 334° Northwest 413 475 43,000  Level Albuquerque Center
06:34PM 34.9497 -100.3300 335° Northwest 414 476 43,000  Level Albuquerque Center
06:35PM 35.0375 -100.3819 334° Northwest 416 479 43,000  Level Albuquerque Center
06:36PM 35.1625 -100.4528 335° Northwest 415 478 43,000  Level Albuquerque Center
06:37PM 35.2606 -100.5100 335° Northwest 406 467 43,000  Level Albuquerque Center
06:38PM 35.3619 -100.5703 334° Northwest 403 464 43,000  Level Albuquerque Center
06:39PM 35.4636 -100.6300 334° Northwest 402 463 43,000  Level Albuquerque Center
06:40PM 35.5675 -100.6900 335° Northwest 407 468 43,000  Level Albuquerque Center
06:41PM 35.6717 -100.7508 335° Northwest 413 475 43,000  Level Albuquerque Center
06:42PM 35.7778 -100.8147 334° Northwest 412 474 43,000  Level Albuquerque Center
06:43PM 35.8789 -100.8753 334° Northwest 408 470 43,000  Level Albuquerque Center
06:44PM 35.9944 -100.9436 334° Northwest 403 464 43,000  Level Albuquerque Center
06:46PM 36.0997 -101.0064 334° Northwest 398 458 43,000  Level Albuquerque Center
06:47PM 36.1986 -101.0644 335° Northwest 394 453 43,000  Level Albuquerque Center
06:48PM 36.2925 -101.1228 333° Northwest 394 453 43,000  Level Albuquerque Center
06:49PM 36.4044 -101.1892 334° Northwest 397 457 43,000  Level Albuquerque Center
06:50PM 36.5003 -101.2489 333° Northwest 400 460 43,000  Level Albuquerque Center
06:51PM 36.5969 -101.3075 334° Northwest 402 463 43,000  Level Albuquerque Center
06:52PM 36.7106 -101.3769 334° Northwest 405 466 43,000  Level Albuquerque Center
06:53PM 36.8086 -101.4367 334° Northwest 408 470 43,000  Level Albuquerque Center
06:54PM 36.9208 -101.5050 334° Northwest 402 463 43,000  Level Albuquerque Center
06:55PM 37.0175 -101.5644 334° Northwest 402 463 43,000  Level Albuquerque Center
06:56PM 37.1136 -101.6225 334° Northwest 400 460 43,000  Level Albuquerque Center
06:57PM 37.2244 -101.6917 334° Northwest 398 458 43,000  Level Albuquerque Center
06:58PM 37.3211 -101.7508 334° Northwest 399 459 43,000  Level Albuquerque Center
06:59PM 37.4161 -101.8114 333° Northwest 399 459 43,000  Level Albuquerque Center
07:00PM 37.5281 -101.8800 334° Northwest 399 459 43,000  Level Denver Center
07:01PM 37.6256 -101.9406 334° Northwest 406 467 43,000  Level Denver Center
07:02PM 37.7386 -102.0108 334° Northwest 404 465 43,000  Level Denver Center
07:03PM 37.8350 -102.0706 334° Northwest 403 464 43,000  Level Denver Center
07:04PM 37.9486 -102.1417 334° Northwest 406 467 43,000  Level Denver Center
07:05PM 38.0603 -102.2131 333° Northwest 404 465 43,000  Level Denver Center
07:06PM 38.1725 -102.2844 333° Northwest 404 465 43,000  Level Denver Center
07:07PM 38.2686 -102.3456 333° Northwest 402 463 43,000  Level Denver Center
07:08PM 38.3803 -102.4169 333° Northwest 402 463 43,000  Level Denver Center
07:09PM 38.4758 -102.4775 334° Northwest 401 461 43,000  Level Denver Center
07:10PM 38.5869 -102.5486 333° Northwest 400 460 43,000  Level Denver Center
07:11PM 38.6814 -102.6089 334° Northwest 398 458 43,000  Level Denver Center
07:13PM 38.7906 -102.6797 333° Northwest 395 455 43,000  Level Denver Center
07:14PM 38.9114 -102.7572 333° Northwest 393 452 43,000  Level Denver Center
07:15PM 39.0058 -102.8208 332° Northwest 387 445 43,000  Level Denver Center
07:16PM 39.1025 -102.8842 333° Northwest 388 447 43,000  Level Denver Center
07:17PM 39.1975 -102.9461 333° Northwest 386 444 43,000  Level Denver Center
07:18PM 39.2933 -103.0089 333° Northwest 386 444 43,000  Level Denver Center
07:19PM 39.3694 -103.0581 333° Northwest 387 445 43,000  Level Denver Center
07:20PM 39.5033 -103.1481 333° Northwest 389 448 43,000  Level Denver Center
07:21PM 39.5992 -103.2117 333° Northwest 389 448 43,000  Level Denver Center
07:22PM 39.6958 -103.2753 333° Northwest 390 449 43,000  Level Denver Center
07:23PM 39.7919 -103.3403 333° Northwest 391 450 43,000  Level Denver Center
07:24PM 39.8889 -103.4039 333° Northwest 391 450 43,000  Level Denver Center
07:25PM 40.0050 -103.4831 332° Northwest 394 453 43,000  Level Denver Center
07:26PM 40.1003 -103.5469 333° Northwest 390 449 43,000  Level Denver Center
07:27PM 40.1967 -103.6119 333° Northwest 390 449 43,000  Level Denver Center
07:28PM 40.2928 -103.6781 332° Northwest 393 452 43,000  Level Denver Center
07:29PM 40.3892 -103.7417 333° Northwest 390 449 43,000  Level Denver Center
07:30PM 40.5050 -103.8228 332° Northwest 393 452 43,000  Level Denver Center
07:31PM 40.6008 -103.8889 332° Northwest 390 449 43,000  Level Denver Center
07:32PM 40.6972 -103.9544 333° Northwest 391 450 43,000  Level Denver Center
07:33PM 40.7914 -104.0206 332° Northwest 387 445 43,000  Level Denver Center
07:34PM 40.8867 -104.0850 333° Northwest 385 443 43,000  Level Denver Center
07:35PM 40.9981 -104.1644 332° Northwest 386 444 43,000  Level Denver Center
07:36PM 41.0886 -104.2283 332° Northwest 385 443 43,000  Level Denver Center
07:37PM 41.1792 -104.2903 333° Northwest 382 440 43,000  Level Denver Center
07:39PM 41.2847 -104.3644 332° Northwest 383 441 43,000  Level Denver Center
07:40PM 41.3747 -104.4297 331° Northwest 384 442 43,000  Level Denver Center
07:41PM 41.4644 -104.4922 332° Northwest 380 437 43,000  Level Denver Center
07:42PM 41.5694 -104.5669 332° Northwest 382 440 43,000  Level Denver Center
07:43PM 41.6747 -104.6417 332° Northwest 383 441 43,000  Level Denver Center
07:44PM 41.7933 -104.7269 332° Northwest 379 436 43,000  Level Denver Center
07:45PM 41.8828 -104.7911 332° Northwest 380 437 43,000  Level Denver Center
07:46PM 41.9722 -104.8564 332° Northwest 381 438 43,000  Level Denver Center
07:47PM 42.0761 -104.9319 332° Northwest 379 436 43,000  Level Denver Center
07:48PM 42.1656 -104.9969 332° Northwest 379 436 43,000  Level Denver Center
07:49PM 42.2703 -105.0736 332° Northwest 381 438 43,000  Level Denver Center
07:50PM 42.3606 -105.1378 332° Northwest 381 438 43,000  Level Denver Center
07:51PM 42.4644 -105.2142 332° Northwest 379 436 43,000  Level Denver Center
07:52PM 42.5539 -105.2800 332° Northwest 380 437 43,000  Level Denver Center
07:53PM 42.6567 -105.3569 331° Northwest 377 434 43,000  Level Denver Center
07:54PM 42.7442 -105.4228 331° Northwest 375 432 43,000 -300 Level Denver Center
07:55PM 42.8353 -105.4867 333° Northwest 381 438 42,400 -1,020 Descending Denver Center
07:56PM 42.9411 -105.5694 330° Northwest 389 448 41,000 -1,620 Descending Denver Center
07:57PM 43.0311 -105.6386 331° Northwest 388 447 39,100 -2,040 Descending Denver Center
07:58PM 43.1322 -105.7161 331° Northwest 375 432 36,800 -1,980 Descending Denver Center
07:59PM 43.2189 -105.7836 330° Northwest 373 429 35,100 -1,860 Descending Denver Center
08:00PM 43.3236 -105.8689 329° Northwest 390 449 33,000 -1,980 Descending Denver Center
08:01PM 43.4172 -105.9411 331° Northwest 401 461 31,100 -1,860 Descending Denver Center
08:03PM 43.5281 -106.0286 330° Northwest 409 471 28,900 -1,980 Descending Denver Center
08:04PM 43.6400 -106.1172 330° Northwest 417 480 26,700 -1,440 Descending Denver Center
08:05PM 43.7483 -106.2042 330° Northwest 403 464 26,000 -360 Descending Denver Center
08:06PM 43.8406 -106.2778 330° Northwest 401 461 26,000  Level Denver Center
08:06PM 43.9014 -106.3275 330° Northwest 399 459 26,000  Level Salt Lake Center
08:07PM 43.9953 -106.4022 330° Northwest 404 465 26,000 -1,140 Level Salt Lake Center
08:08PM 44.0831 -106.4736 330° Northwest 366 421 23,700 -2,760 Descending Salt Lake Center
08:10PM 44.1894 -106.5575 331° Northwest 365 420 20,300 -3,000 Descending Salt Lake Center
08:11PM 44.2756 -106.6281 330° Northwest 362 417 17,600 -2,700 Descending Salt Lake Center
08:12PM 44.3586 -106.6956 330° Northwest 351 404 14,800 -2,520 Descending Salt Lake Center
08:13PM 44.4303 -106.7658 325° Northwest 329 379 12,400 -2,280 Descending Salt Lake Center
08:14PM 44.5022 -106.8219 331° Northwest 310 357 10,200 -2,160 Descending Salt Lake Center
08:16PM 44.6431 -106.8842 335° Northwest  Level FlightAware Approximate
08:23PM 44.7667 -106.9667 347° North  Level FlightAware Approximate
08:24PM 44.7692 -106.9803 347° North  Level Estimated